sensor_id;sensor_type;location;lat;lon;timestamp;temperature;humidity
28530;DHT22;15737;49.760;6.632;2023-04-24T00:00:23;9.40;99.90
28530;DHT22;15737;49.760;6.632;2023-04-24T00:02:49;9.30;99.90
28530;DHT22;15737;49.760;6.632;2023-04-24T00:05:16;9.30;99.90
28530;DHT22;15737;49.760;6.632;2023-04-24T00:07:44;9.40;99.90
28530;DHT22;15737;49.760;6.632;2023-04-24T00:10:10;9.30;99.90
28530;DHT22;15737;49.760;6.632;2023-04-24T00:12:36;9.30;99.90
28530;DHT22;15737;49.760;6.632;2023-04-24T00:15:02;9.30;99.90
28530;DHT22;15737;49.760;6.632;2023-04-24T00:17:28;9.30;99.90
28530;DHT22;15737;49.760;6.632;2023-04-24T00:19:53;9.30;99.90
28530;DHT22;15737;49.760;6.632;2023-04-24T00:22:26;9.30;99.90
28530;DHT22;15737;49.760;6.632;2023-04-24T00:24:52;9.30;99.90
28530;DHT22;15737;49.760;6.632;2023-04-24T00:27:18;9.30;99.90
28530;DHT22;15737;49.760;6.632;2023-04-24T00:29:43;9.30;99.90
28530;DHT22;15737;49.760;6.632;2023-04-24T00:32:09;9.30;99.90
28530;DHT22;15737;49.760;6.632;2023-04-24T00:34:35;9.30;99.90
28530;DHT22;15737;49.760;6.632;2023-04-24T00:37:00;9.30;99.90
28530;DHT22;15737;49.760;6.632;2023-04-24T00:39:26;9.40;99.90
28530;DHT22;15737;49.760;6.632;2023-04-24T00:41:52;9.40;99.90
28530;DHT22;15737;49.760;6.632;2023-04-24T00:44:18;9.40;99.90
28530;DHT22;15737;49.760;6.632;2023-04-24T00:46:44;9.50;99.90
28530;DHT22;15737;49.760;6.632;2023-04-24T00:49:11;9.50;99.90
28530;DHT22;15737;49.760;6.632;2023-04-24T00:51:37;9.60;99.90
28530;DHT22;15737;49.760;6.632;2023-04-24T00:54:02;9.60;99.90
28530;DHT22;15737;49.760;6.632;2023-04-24T00:56:28;9.60;99.90
28530;DHT22;15737;49.760;6.632;2023-04-24T00:58:54;9.60;99.90
28530;DHT22;15737;49.760;6.632;2023-04-24T01:01:21;9.60;99.90
28530;DHT22;15737;49.760;6.632;2023-04-24T01:03:48;9.60;99.90
28530;DHT22;15737;49.760;6.632;2023-04-24T01:06:15;9.60;99.90
28530;DHT22;15737;49.760;6.632;2023-04-24T01:08:41;9.50;99.90
28530;DHT22;15737;49.760;6.632;2023-04-24T01:11:07;9.50;99.90
28530;DHT22;15737;49.760;6.632;2023-04-24T01:13:33;9.50;99.90
28530;DHT22;15737;49.760;6.632;2023-04-24T01:15:59;9.50;99.90
28530;DHT22;15737;49.760;6.632;2023-04-24T01:18:26;9.50;99.90
28530;DHT22;15737;49.760;6.632;2023-04-24T01:20:54;9.50;99.90
28530;DHT22;15737;49.760;6.632;2023-04-24T01:23:22;9.50;99.90
28530;DHT22;15737;49.760;6.632;2023-04-24T01:25:48;9.40;99.90
28530;DHT22;15737;49.760;6.632;2023-04-24T01:28:14;9.40;99.90
28530;DHT22;15737;49.760;6.632;2023-04-24T01:30:40;9.40;99.90
28530;DHT22;15737;49.760;6.632;2023-04-24T01:33:06;9.30;99.90
28530;DHT22;15737;49.760;6.632;2023-04-24T01:35:32;9.30;99.90
28530;DHT22;15737;49.760;6.632;2023-04-24T01:37:58;9.20;99.90
28530;DHT22;15737;49.760;6.632;2023-04-24T01:40:23;9.10;99.90
28530;DHT22;15737;49.760;6.632;2023-04-24T01:42:49;8.90;99.90
28530;DHT22;15737;49.760;6.632;2023-04-24T01:45:14;8.80;99.90
28530;DHT22;15737;49.760;6.632;2023-04-24T01:47:40;8.70;99.90
28530;DHT22;15737;49.760;6.632;2023-04-24T01:50:06;8.60;99.90
28530;DHT22;15737;49.760;6.632;2023-04-24T01:52:32;8.50;99.90
28530;DHT22;15737;49.760;6.632;2023-04-24T01:55:03;8.50;99.90
28530;DHT22;15737;49.760;6.632;2023-04-24T01:57:30;8.50;99.90
28530;DHT22;15737;49.760;6.632;2023-04-24T01:59:56;8.40;99.90
28530;DHT22;15737;49.760;6.632;2023-04-24T02:02:22;8.40;99.90
28530;DHT22;15737;49.760;6.632;2023-04-24T02:04:49;8.30;99.90
28530;DHT22;15737;49.760;6.632;2023-04-24T02:07:15;8.30;99.90
28530;DHT22;15737;49.760;6.632;2023-04-24T02:09:40;8.30;99.90
28530;DHT22;15737;49.760;6.632;2023-04-24T02:12:06;8.20;99.90
28530;DHT22;15737;49.760;6.632;2023-04-24T02:14:31;8.10;99.90
28530;DHT22;15737;49.760;6.632;2023-04-24T02:16:57;8.00;99.90
28530;DHT22;15737;49.760;6.632;2023-04-24T02:19:23;7.90;99.90
28530;DHT22;15737;49.760;6.632;2023-04-24T02:21:48;7.90;99.90
28530;DHT22;15737;49.760;6.632;2023-04-24T02:24:14;7.90;99.90
28530;DHT22;15737;49.760;6.632;2023-04-24T02:26:39;7.90;99.90
28530;DHT22;15737;49.760;6.632;2023-04-24T02:29:05;7.80;99.90
28530;DHT22;15737;49.760;6.632;2023-04-24T02:31:30;7.70;99.90
28530;DHT22;15737;49.760;6.632;2023-04-24T02:33:56;7.70;99.90
28530;DHT22;15737;49.760;6.632;2023-04-24T02:36:21;7.60;99.90
28530;DHT22;15737;49.760;6.632;2023-04-24T02:38:47;7.50;99.90
28530;DHT22;15737;49.760;6.632;2023-04-24T02:41:12;7.40;99.90
28530;DHT22;15737;49.760;6.632;2023-04-24T02:43:38;7.30;99.90
28530;DHT22;15737;49.760;6.632;2023-04-24T02:46:03;7.30;99.90
28530;DHT22;15737;49.760;6.632;2023-04-24T02:48:29;7.20;99.90
28530;DHT22;15737;49.760;6.632;2023-04-24T02:50:55;7.20;99.90
28530;DHT22;15737;49.760;6.632;2023-04-24T02:53:20;7.20;99.90
28530;DHT22;15737;49.760;6.632;2023-04-24T02:55:46;7.10;99.90
28530;DHT22;15737;49.760;6.632;2023-04-24T02:58:11;7.00;99.90
28530;DHT22;15737;49.760;6.632;2023-04-24T03:00:38;7.10;99.90
28530;DHT22;15737;49.760;6.632;2023-04-24T03:03:04;7.20;99.90
28530;DHT22;15737;49.760;6.632;2023-04-24T03:05:30;7.30;99.90
28530;DHT22;15737;49.760;6.632;2023-04-24T03:07:56;7.20;99.90
28530;DHT22;15737;49.760;6.632;2023-04-24T03:10:22;7.20;99.90
28530;DHT22;15737;49.760;6.632;2023-04-24T03:12:50;7.30;99.90
28530;DHT22;15737;49.760;6.632;2023-04-24T03:15:16;7.40;99.90
28530;DHT22;15737;49.760;6.632;2023-04-24T03:17:41;7.50;99.90
28530;DHT22;15737;49.760;6.632;2023-04-24T03:20:08;7.60;99.90
28530;DHT22;15737;49.760;6.632;2023-04-24T03:22:34;7.60;99.90
28530;DHT22;15737;49.760;6.632;2023-04-24T03:25:00;7.70;99.90
28530;DHT22;15737;49.760;6.632;2023-04-24T03:27:26;7.70;99.90
28530;DHT22;15737;49.760;6.632;2023-04-24T03:29:51;7.70;99.90
28530;DHT22;15737;49.760;6.632;2023-04-24T03:32:23;7.70;99.90
28530;DHT22;15737;49.760;6.632;2023-04-24T03:34:49;7.70;99.90
28530;DHT22;15737;49.760;6.632;2023-04-24T03:37:15;7.70;99.90
28530;DHT22;15737;49.760;6.632;2023-04-24T03:39:41;7.70;99.90
28530;DHT22;15737;49.760;6.632;2023-04-24T03:42:07;7.70;99.90
28530;DHT22;15737;49.760;6.632;2023-04-24T03:44:34;7.70;99.90
28530;DHT22;15737;49.760;6.632;2023-04-24T03:46:59;7.70;99.90
28530;DHT22;15737;49.760;6.632;2023-04-24T03:49:25;7.70;99.90
28530;DHT22;15737;49.760;6.632;2023-04-24T03:51:51;7.70;99.90
28530;DHT22;15737;49.760;6.632;2023-04-24T03:54:18;7.70;99.90
28530;DHT22;15737;49.760;6.632;2023-04-24T03:56:43;7.70;99.90
28530;DHT22;15737;49.760;6.632;2023-04-24T03:59:09;7.70;99.90
28530;DHT22;15737;49.760;6.632;2023-04-24T04:01:34;7.70;99.90
28530;DHT22;15737;49.760;6.632;2023-04-24T04:04:03;7.70;99.90
28530;DHT22;15737;49.760;6.632;2023-04-24T04:06:28;7.70;99.90
28530;DHT22;15737;49.760;6.632;2023-04-24T04:08:54;7.70;99.90
28530;DHT22;15737;49.760;6.632;2023-04-24T04:11:19;7.70;99.90
28530;DHT22;15737;49.760;6.632;2023-04-24T04:13:45;7.70;99.90
28530;DHT22;15737;49.760;6.632;2023-04-24T04:16:13;7.70;99.90
28530;DHT22;15737;49.760;6.632;2023-04-24T04:18:38;7.70;99.90
28530;DHT22;15737;49.760;6.632;2023-04-24T04:21:04;7.60;99.90
28530;DHT22;15737;49.760;6.632;2023-04-24T04:23:30;7.60;99.90
28530;DHT22;15737;49.760;6.632;2023-04-24T04:25:55;7.50;99.90
28530;DHT22;15737;49.760;6.632;2023-04-24T04:28:21;7.50;99.90
28530;DHT22;15737;49.760;6.632;2023-04-24T04:30:49;7.50;99.90
28530;DHT22;15737;49.760;6.632;2023-04-24T04:33:19;7.40;99.90
28530;DHT22;15737;49.760;6.632;2023-04-24T04:35:45;7.50;99.90
28530;DHT22;15737;49.760;6.632;2023-04-24T04:38:14;7.50;99.90
28530;DHT22;15737;49.760;6.632;2023-04-24T04:40:43;7.60;99.90
28530;DHT22;15737;49.760;6.632;2023-04-24T04:43:08;7.60;99.90
28530;DHT22;15737;49.760;6.632;2023-04-24T04:45:33;7.60;99.90
28530;DHT22;15737;49.760;6.632;2023-04-24T04:48:00;7.60;99.90
28530;DHT22;15737;49.760;6.632;2023-04-24T04:50:26;7.60;99.90
28530;DHT22;15737;49.760;6.632;2023-04-24T04:52:52;7.70;99.90
28530;DHT22;15737;49.760;6.632;2023-04-24T04:55:17;7.70;99.90
28530;DHT22;15737;49.760;6.632;2023-04-24T04:57:45;7.70;99.90
28530;DHT22;15737;49.760;6.632;2023-04-24T05:00:11;7.70;99.90
28530;DHT22;15737;49.760;6.632;2023-04-24T05:02:37;7.70;99.90
28530;DHT22;15737;49.760;6.632;2023-04-24T05:05:03;7.70;99.90
28530;DHT22;15737;49.760;6.632;2023-04-24T05:07:28;7.70;99.90
28530;DHT22;15737;49.760;6.632;2023-04-24T05:09:54;7.70;99.90
28530;DHT22;15737;49.760;6.632;2023-04-24T05:12:20;7.70;99.90
28530;DHT22;15737;49.760;6.632;2023-04-24T05:14:45;7.80;99.90
28530;DHT22;15737;49.760;6.632;2023-04-24T05:17:11;7.80;99.90
28530;DHT22;15737;49.760;6.632;2023-04-24T05:19:36;7.80;99.90
28530;DHT22;15737;49.760;6.632;2023-04-24T05:22:03;7.80;99.90
28530;DHT22;15737;49.760;6.632;2023-04-24T05:24:34;7.90;99.90
28530;DHT22;15737;49.760;6.632;2023-04-24T05:27:00;7.90;99.90
28530;DHT22;15737;49.760;6.632;2023-04-24T05:29:25;8.00;99.90
28530;DHT22;15737;49.760;6.632;2023-04-24T05:31:51;8.50;99.90
28530;DHT22;15737;49.760;6.632;2023-04-24T05:34:17;10.50;99.90
28530;DHT22;15737;49.760;6.632;2023-04-24T05:36:43;11.80;99.90
28530;DHT22;15737;49.760;6.632;2023-04-24T05:39:09;11.20;99.90
28530;DHT22;15737;49.760;6.632;2023-04-24T05:41:34;10.30;99.90
28530;DHT22;15737;49.760;6.632;2023-04-24T05:44:00;9.50;99.90
28530;DHT22;15737;49.760;6.632;2023-04-24T05:46:25;9.10;99.90
28530;DHT22;15737;49.760;6.632;2023-04-24T05:48:51;8.90;99.90
28530;DHT22;15737;49.760;6.632;2023-04-24T05:51:16;8.70;99.90
28530;DHT22;15737;49.760;6.632;2023-04-24T05:53:42;8.60;99.90
28530;DHT22;15737;49.760;6.632;2023-04-24T05:56:07;8.50;99.90
28530;DHT22;15737;49.760;6.632;2023-04-24T05:58:33;8.40;99.90
28530;DHT22;15737;49.760;6.632;2023-04-24T06:00:59;8.40;99.90
28530;DHT22;15737;49.760;6.632;2023-04-24T06:03:26;8.40;99.90
28530;DHT22;15737;49.760;6.632;2023-04-24T06:05:52;8.50;99.90
28530;DHT22;15737;49.760;6.632;2023-04-24T06:08:18;8.40;99.90
28530;DHT22;15737;49.760;6.632;2023-04-24T06:10:44;8.40;99.90
28530;DHT22;15737;49.760;6.632;2023-04-24T06:13:09;8.40;99.90
28530;DHT22;15737;49.760;6.632;2023-04-24T06:15:35;8.30;99.90
28530;DHT22;15737;49.760;6.632;2023-04-24T06:18:00;8.40;99.90
28530;DHT22;15737;49.760;6.632;2023-04-24T06:20:26;8.40;99.90
28530;DHT22;15737;49.760;6.632;2023-04-24T06:22:51;8.30;99.90
28530;DHT22;15737;49.760;6.632;2023-04-24T06:25:17;8.30;99.90
28530;DHT22;15737;49.760;6.632;2023-04-24T06:27:43;8.20;99.90
28530;DHT22;15737;49.760;6.632;2023-04-24T06:30:09;8.10;99.90
28530;DHT22;15737;49.760;6.632;2023-04-24T06:32:34;8.00;99.90
28530;DHT22;15737;49.760;6.632;2023-04-24T06:35:00;8.00;99.90
28530;DHT22;15737;49.760;6.632;2023-04-24T06:37:26;8.00;99.90
28530;DHT22;15737;49.760;6.632;2023-04-24T06:39:51;8.20;99.90
28530;DHT22;15737;49.760;6.632;2023-04-24T06:42:17;8.50;99.90
28530;DHT22;15737;49.760;6.632;2023-04-24T06:44:42;8.80;99.90
28530;DHT22;15737;49.760;6.632;2023-04-24T06:47:09;8.90;99.90
28530;DHT22;15737;49.760;6.632;2023-04-24T06:49:38;9.00;99.90
28530;DHT22;15737;49.760;6.632;2023-04-24T06:52:04;8.90;99.90
28530;DHT22;15737;49.760;6.632;2023-04-24T06:54:30;8.70;99.90
28530;DHT22;15737;49.760;6.632;2023-04-24T06:56:56;8.60;99.90
28530;DHT22;15737;49.760;6.632;2023-04-24T06:59:25;8.60;99.90
28530;DHT22;15737;49.760;6.632;2023-04-24T07:01:51;8.60;99.90
28530;DHT22;15737;49.760;6.632;2023-04-24T07:04:17;8.60;99.90
28530;DHT22;15737;49.760;6.632;2023-04-24T07:06:43;8.60;99.90
28530;DHT22;15737;49.760;6.632;2023-04-24T07:09:09;8.60;99.90
28530;DHT22;15737;49.760;6.632;2023-04-24T07:11:35;8.60;99.90
28530;DHT22;15737;49.760;6.632;2023-04-24T07:14:03;8.60;99.90
28530;DHT22;15737;49.760;6.632;2023-04-24T07:16:28;8.50;99.90
28530;DHT22;15737;49.760;6.632;2023-04-24T07:18:55;8.40;99.90
28530;DHT22;15737;49.760;6.632;2023-04-24T07:21:20;8.30;99.90
28530;DHT22;15737;49.760;6.632;2023-04-24T07:23:46;8.30;99.90
28530;DHT22;15737;49.760;6.632;2023-04-24T07:26:16;8.10;99.90
28530;DHT22;15737;49.760;6.632;2023-04-24T07:28:59;8.00;99.90
28530;DHT22;15737;49.760;6.632;2023-04-24T07:31:39;8.20;99.90
28530;DHT22;15737;49.760;6.632;2023-04-24T07:34:15;8.40;99.90
28530;DHT22;15737;49.760;6.632;2023-04-24T07:36:51;8.60;99.90
28530;DHT22;15737;49.760;6.632;2023-04-24T07:39:30;9.00;99.90
28530;DHT22;15737;49.760;6.632;2023-04-24T07:42:08;9.20;99.90
28530;DHT22;15737;49.760;6.632;2023-04-24T07:44:48;9.50;99.90
28530;DHT22;15737;49.760;6.632;2023-04-24T07:47:28;9.30;99.90
28530;DHT22;15737;49.760;6.632;2023-04-24T07:50:09;9.10;99.90
28530;DHT22;15737;49.760;6.632;2023-04-24T07:52:43;9.10;99.90
28530;DHT22;15737;49.760;6.632;2023-04-24T07:55:22;9.20;99.90
28530;DHT22;15737;49.760;6.632;2023-04-24T07:57:58;9.00;99.90
28530;DHT22;15737;49.760;6.632;2023-04-24T08:00:32;8.90;99.90
28530;DHT22;15737;49.760;6.632;2023-04-24T08:03:10;9.30;99.90
28530;DHT22;15737;49.760;6.632;2023-04-24T08:05:48;9.30;99.90
28530;DHT22;15737;49.760;6.632;2023-04-24T08:08:27;9.00;99.90
28530;DHT22;15737;49.760;6.632;2023-04-24T08:11:04;8.90;99.90
28530;DHT22;15737;49.760;6.632;2023-04-24T08:13:39;8.80;99.90
28530;DHT22;15737;49.760;6.632;2023-04-24T08:16:19;8.70;99.90
28530;DHT22;15737;49.760;6.632;2023-04-24T08:19:01;8.60;99.90
28530;DHT22;15737;49.760;6.632;2023-04-24T08:21:43;8.50;99.90
28530;DHT22;15737;49.760;6.632;2023-04-24T08:24:25;8.40;99.90
28530;DHT22;15737;49.760;6.632;2023-04-24T08:26:57;8.30;99.90
28530;DHT22;15737;49.760;6.632;2023-04-24T08:29:38;8.30;99.90
28530;DHT22;15737;49.760;6.632;2023-04-24T08:32:15;8.20;99.90
28530;DHT22;15737;49.760;6.632;2023-04-24T08:34:43;8.40;99.90
28530;DHT22;15737;49.760;6.632;2023-04-24T08:37:08;8.70;99.90
28530;DHT22;15737;49.760;6.632;2023-04-24T08:39:34;9.10;99.90
28530;DHT22;15737;49.760;6.632;2023-04-24T08:42:00;9.50;99.90
28530;DHT22;15737;49.760;6.632;2023-04-24T08:44:32;9.70;99.90
28530;DHT22;15737;49.760;6.632;2023-04-24T08:46:58;10.20;99.90
28530;DHT22;15737;49.760;6.632;2023-04-24T08:49:24;10.10;99.90
28530;DHT22;15737;49.760;6.632;2023-04-24T08:51:50;9.80;99.90
28530;DHT22;15737;49.760;6.632;2023-04-24T08:54:18;9.60;99.90
28530;DHT22;15737;49.760;6.632;2023-04-24T08:56:44;9.50;99.90
28530;DHT22;15737;49.760;6.632;2023-04-24T08:59:10;9.30;99.90
28530;DHT22;15737;49.760;6.632;2023-04-24T09:01:37;9.10;99.90
28530;DHT22;15737;49.760;6.632;2023-04-24T09:04:06;9.00;99.90
28530;DHT22;15737;49.760;6.632;2023-04-24T09:06:32;8.80;99.90
28530;DHT22;15737;49.760;6.632;2023-04-24T09:09:01;8.70;99.90
28530;DHT22;15737;49.760;6.632;2023-04-24T09:11:27;8.60;99.90
28530;DHT22;15737;49.760;6.632;2023-04-24T09:13:56;8.60;99.90
28530;DHT22;15737;49.760;6.632;2023-04-24T09:16:23;8.50;99.90
28530;DHT22;15737;49.760;6.632;2023-04-24T09:18:50;8.50;99.90
28530;DHT22;15737;49.760;6.632;2023-04-24T09:21:15;8.50;99.90
28530;DHT22;15737;49.760;6.632;2023-04-24T09:23:41;8.60;99.90
28530;DHT22;15737;49.760;6.632;2023-04-24T09:26:09;8.70;99.90
28530;DHT22;15737;49.760;6.632;2023-04-24T09:28:40;9.00;99.90
28530;DHT22;15737;49.760;6.632;2023-04-24T09:33:32;10.80;99.90
28530;DHT22;15737;49.760;6.632;2023-04-24T09:35:58;12.30;99.90
28530;DHT22;15737;49.760;6.632;2023-04-24T09:38:31;12.80;99.90
28530;DHT22;15737;49.760;6.632;2023-04-24T09:41:03;12.40;99.90
28530;DHT22;15737;49.760;6.632;2023-04-24T09:43:30;11.40;99.90
28530;DHT22;15737;49.760;6.632;2023-04-24T09:45:57;10.80;99.90
28530;DHT22;15737;49.760;6.632;2023-04-24T09:48:31;10.50;99.90
28530;DHT22;15737;49.760;6.632;2023-04-24T09:50:57;10.20;99.90
28530;DHT22;15737;49.760;6.632;2023-04-24T09:53:26;10.00;99.90
28530;DHT22;15737;49.760;6.632;2023-04-24T09:55:52;9.90;99.90
28530;DHT22;15737;49.760;6.632;2023-04-24T09:58:18;10.10;99.90
28530;DHT22;15737;49.760;6.632;2023-04-24T10:00:49;10.20;99.90
28530;DHT22;15737;49.760;6.632;2023-04-24T10:03:14;10.40;99.90
28530;DHT22;15737;49.760;6.632;2023-04-24T10:05:44;10.50;99.90
28530;DHT22;15737;49.760;6.632;2023-04-24T10:08:11;10.70;99.90
28530;DHT22;15737;49.760;6.632;2023-04-24T10:10:42;10.80;99.90
28530;DHT22;15737;49.760;6.632;2023-04-24T10:13:09;10.90;99.90
28530;DHT22;15737;49.760;6.632;2023-04-24T10:15:36;11.20;99.90
28530;DHT22;15737;49.760;6.632;2023-04-24T10:18:02;11.60;99.90
28530;DHT22;15737;49.760;6.632;2023-04-24T10:20:29;12.30;99.90
28530;DHT22;15737;49.760;6.632;2023-04-24T10:22:59;13.10;99.90
28530;DHT22;15737;49.760;6.632;2023-04-24T10:25:27;14.10;99.90
28530;DHT22;15737;49.760;6.632;2023-04-24T10:27:53;15.60;99.90
28530;DHT22;15737;49.760;6.632;2023-04-24T10:30:22;16.10;99.90
28530;DHT22;15737;49.760;6.632;2023-04-24T10:32:48;15.80;99.90
28530;DHT22;15737;49.760;6.632;2023-04-24T10:35:15;14.50;99.90
28530;DHT22;15737;49.760;6.632;2023-04-24T10:37:44;14.10;99.90
28530;DHT22;15737;49.760;6.632;2023-04-24T10:40:11;13.50;99.90
28530;DHT22;15737;49.760;6.632;2023-04-24T10:42:40;13.00;99.90
28530;DHT22;15737;49.760;6.632;2023-04-24T10:45:20;12.60;99.90
28530;DHT22;15737;49.760;6.632;2023-04-24T10:48:01;12.40;99.90
28530;DHT22;15737;49.760;6.632;2023-04-24T10:50:29;12.20;99.90
28530;DHT22;15737;49.760;6.632;2023-04-24T10:53:06;12.30;99.90
28530;DHT22;15737;49.760;6.632;2023-04-24T10:55:51;12.30;99.90
28530;DHT22;15737;49.760;6.632;2023-04-24T10:58:24;12.30;99.90
28530;DHT22;15737;49.760;6.632;2023-04-24T11:00:59;12.30;99.90
28530;DHT22;15737;49.760;6.632;2023-04-24T11:03:30;12.50;99.90
28530;DHT22;15737;49.760;6.632;2023-04-24T11:06:01;12.50;99.90
28530;DHT22;15737;49.760;6.632;2023-04-24T11:08:31;12.60;99.90
28530;DHT22;15737;49.760;6.632;2023-04-24T11:11:15;12.50;99.90
28530;DHT22;15737;49.760;6.632;2023-04-24T11:18:57;13.10;99.90
28530;DHT22;15737;49.760;6.632;2023-04-24T11:21:25;13.30;99.90
28530;DHT22;15737;49.760;6.632;2023-04-24T11:23:51;13.20;99.90
28530;DHT22;15737;49.760;6.632;2023-04-24T11:26:26;12.90;99.90
28530;DHT22;15737;49.760;6.632;2023-04-24T11:29:06;12.70;99.90
28530;DHT22;15737;49.760;6.632;2023-04-24T11:31:37;12.50;99.90
28530;DHT22;15737;49.760;6.632;2023-04-24T11:34:12;12.40;99.90
28530;DHT22;15737;49.760;6.632;2023-04-24T11:36:40;12.40;99.90
28530;DHT22;15737;49.760;6.632;2023-04-24T11:39:09;12.40;99.90
28530;DHT22;15737;49.760;6.632;2023-04-24T11:41:45;12.50;99.90
28530;DHT22;15737;49.760;6.632;2023-04-24T11:44:19;12.50;99.90
28530;DHT22;15737;49.760;6.632;2023-04-24T11:46:45;12.60;99.90
28530;DHT22;15737;49.760;6.632;2023-04-24T11:49:12;12.60;99.90
28530;DHT22;15737;49.760;6.632;2023-04-24T11:51:37;12.70;99.90
28530;DHT22;15737;49.760;6.632;2023-04-24T11:54:07;13.10;99.90
28530;DHT22;15737;49.760;6.632;2023-04-24T11:56:33;13.70;99.90
28530;DHT22;15737;49.760;6.632;2023-04-24T11:58:58;14.10;99.90
28530;DHT22;15737;49.760;6.632;2023-04-24T12:01:24;14.00;99.90
28530;DHT22;15737;49.760;6.632;2023-04-24T12:03:50;13.60;99.90
28530;DHT22;15737;49.760;6.632;2023-04-24T12:06:16;13.30;99.90
28530;DHT22;15737;49.760;6.632;2023-04-24T12:08:46;12.90;99.90
28530;DHT22;15737;49.760;6.632;2023-04-24T12:11:15;12.80;99.90
28530;DHT22;15737;49.760;6.632;2023-04-24T12:13:41;12.70;99.90
28530;DHT22;15737;49.760;6.632;2023-04-24T12:16:06;12.50;99.90
28530;DHT22;15737;49.760;6.632;2023-04-24T12:18:32;12.30;99.90
28530;DHT22;15737;49.760;6.632;2023-04-24T12:21:20;12.20;99.90
28530;DHT22;15737;49.760;6.632;2023-04-24T12:23:46;12.20;99.90
28530;DHT22;15737;49.760;6.632;2023-04-24T12:26:19;12.20;99.90
28530;DHT22;15737;49.760;6.632;2023-04-24T12:28:47;12.50;99.90
28530;DHT22;15737;49.760;6.632;2023-04-24T12:31:15;12.80;99.90
28530;DHT22;15737;49.760;6.632;2023-04-24T12:33:40;13.40;99.90
28530;DHT22;15737;49.760;6.632;2023-04-24T12:36:06;13.80;99.90
28530;DHT22;15737;49.760;6.632;2023-04-24T12:38:35;14.30;99.90
28530;DHT22;15737;49.760;6.632;2023-04-24T12:41:07;14.50;99.90
28530;DHT22;15737;49.760;6.632;2023-04-24T12:43:33;14.20;99.90
28530;DHT22;15737;49.760;6.632;2023-04-24T12:46:00;14.10;99.90
28530;DHT22;15737;49.760;6.632;2023-04-24T12:48:29;13.70;99.90
28530;DHT22;15737;49.760;6.632;2023-04-24T12:50:57;13.40;99.90
28530;DHT22;15737;49.760;6.632;2023-04-24T12:53:25;13.10;99.90
28530;DHT22;15737;49.760;6.632;2023-04-24T12:55:51;12.90;99.90
28530;DHT22;15737;49.760;6.632;2023-04-24T12:58:21;12.80;99.90
28530;DHT22;15737;49.760;6.632;2023-04-24T13:00:47;12.60;99.90
28530;DHT22;15737;49.760;6.632;2023-04-24T13:03:13;12.40;99.90
28530;DHT22;15737;49.760;6.632;2023-04-24T13:05:39;12.30;99.90
28530;DHT22;15737;49.760;6.632;2023-04-24T13:08:04;12.30;99.90
28530;DHT22;15737;49.760;6.632;2023-04-24T13:10:30;12.40;99.90
28530;DHT22;15737;49.760;6.632;2023-04-24T13:12:56;12.50;99.90
28530;DHT22;15737;49.760;6.632;2023-04-24T13:15:22;12.90;99.90
28530;DHT22;15737;49.760;6.632;2023-04-24T13:17:48;13.10;99.90
28530;DHT22;15737;49.760;6.632;2023-04-24T13:20:13;13.50;99.90
28530;DHT22;15737;49.760;6.632;2023-04-24T13:22:39;14.00;99.90
28530;DHT22;15737;49.760;6.632;2023-04-24T13:25:05;14.20;99.90
28530;DHT22;15737;49.760;6.632;2023-04-24T13:27:31;14.50;99.90
28530;DHT22;15737;49.760;6.632;2023-04-24T13:29:56;14.70;99.90
28530;DHT22;15737;49.760;6.632;2023-04-24T13:32:22;15.20;99.90
28530;DHT22;15737;49.760;6.632;2023-04-24T13:34:48;16.30;99.90
28530;DHT22;15737;49.760;6.632;2023-04-24T13:37:13;17.00;99.90
28530;DHT22;15737;49.760;6.632;2023-04-24T13:39:39;17.40;97.00
28530;DHT22;15737;49.760;6.632;2023-04-24T13:42:04;17.60;97.00
28530;DHT22;15737;49.760;6.632;2023-04-24T13:44:30;17.40;95.30
28530;DHT22;15737;49.760;6.632;2023-04-24T13:46:57;17.30;95.60
28530;DHT22;15737;49.760;6.632;2023-04-24T13:49:23;18.00;93.30
28530;DHT22;15737;49.760;6.632;2023-04-24T13:51:53;18.10;91.10
28530;DHT22;15737;49.760;6.632;2023-04-24T13:54:19;17.40;91.40
28530;DHT22;15737;49.760;6.632;2023-04-24T13:56:44;17.40;91.40
28530;DHT22;15737;49.760;6.632;2023-04-24T13:59:14;17.90;90.90
28530;DHT22;15737;49.760;6.632;2023-04-24T14:01:40;17.80;89.20
28530;DHT22;15737;49.760;6.632;2023-04-24T14:04:06;17.60;87.80
28530;DHT22;15737;49.760;6.632;2023-04-24T14:06:31;17.40;86.80
28530;DHT22;15737;49.760;6.632;2023-04-24T14:08:57;17.30;87.00
28530;DHT22;15737;49.760;6.632;2023-04-24T14:11:23;17.50;86.60
28530;DHT22;15737;49.760;6.632;2023-04-24T14:13:48;17.50;87.40
28530;DHT22;15737;49.760;6.632;2023-04-24T14:16:14;17.60;87.10
28530;DHT22;15737;49.760;6.632;2023-04-24T14:18:40;17.00;87.10
28530;DHT22;15737;49.760;6.632;2023-04-24T14:21:05;16.40;90.00
28530;DHT22;15737;49.760;6.632;2023-04-24T14:23:31;16.00;91.30
28530;DHT22;15737;49.760;6.632;2023-04-24T14:25:57;15.90;91.90
28530;DHT22;15737;49.760;6.632;2023-04-24T14:28:24;15.50;92.50
28530;DHT22;15737;49.760;6.632;2023-04-24T14:30:49;15.00;93.60
28530;DHT22;15737;49.760;6.632;2023-04-24T14:33:16;14.60;94.50
28530;DHT22;15737;49.760;6.632;2023-04-24T14:35:41;14.40;96.30
28530;DHT22;15737;49.760;6.632;2023-04-24T14:38:10;14.30;95.70
28530;DHT22;15737;49.760;6.632;2023-04-24T14:40:36;14.10;96.10
28530;DHT22;15737;49.760;6.632;2023-04-24T14:43:02;13.90;96.80
28530;DHT22;15737;49.760;6.632;2023-04-24T14:45:28;13.60;98.50
28530;DHT22;15737;49.760;6.632;2023-04-24T14:47:54;13.10;99.70
28530;DHT22;15737;49.760;6.632;2023-04-24T14:50:20;12.80;99.90
28530;DHT22;15737;49.760;6.632;2023-04-24T14:52:45;12.60;99.90
28530;DHT22;15737;49.760;6.632;2023-04-24T14:55:11;12.20;99.90
28530;DHT22;15737;49.760;6.632;2023-04-24T14:57:37;11.90;99.90
28530;DHT22;15737;49.760;6.632;2023-04-24T15:00:04;11.60;99.90
28530;DHT22;15737;49.760;6.632;2023-04-24T15:02:32;11.30;99.90
28530;DHT22;15737;49.760;6.632;2023-04-24T15:04:57;11.10;99.90
28530;DHT22;15737;49.760;6.632;2023-04-24T15:09:52;11.50;99.90
28530;DHT22;15737;49.760;6.632;2023-04-24T15:12:18;11.90;99.90
28530;DHT22;15737;49.760;6.632;2023-04-24T15:14:43;12.20;99.90
28530;DHT22;15737;49.760;6.632;2023-04-24T15:17:09;12.40;99.90
28530;DHT22;15737;49.760;6.632;2023-04-24T15:19:34;12.50;99.90
28530;DHT22;15737;49.760;6.632;2023-04-24T15:22:00;12.60;99.90
28530;DHT22;15737;49.760;6.632;2023-04-24T15:24:25;12.60;99.90
28530;DHT22;15737;49.760;6.632;2023-04-24T15:26:51;12.80;99.90
28530;DHT22;15737;49.760;6.632;2023-04-24T15:29:16;12.90;99.90
28530;DHT22;15737;49.760;6.632;2023-04-24T15:31:42;12.90;99.90
28530;DHT22;15737;49.760;6.632;2023-04-24T15:34:07;12.60;99.90
28530;DHT22;15737;49.760;6.632;2023-04-24T15:36:34;12.50;99.90
28530;DHT22;15737;49.760;6.632;2023-04-24T15:39:01;12.50;99.90
28530;DHT22;15737;49.760;6.632;2023-04-24T15:41:27;12.30;99.90
28530;DHT22;15737;49.760;6.632;2023-04-24T15:43:52;12.10;99.90
28530;DHT22;15737;49.760;6.632;2023-04-24T15:46:18;11.90;99.90
28530;DHT22;15737;49.760;6.632;2023-04-24T15:48:43;11.70;99.90
28530;DHT22;15737;49.760;6.632;2023-04-24T15:51:09;11.50;99.90